sensor_id;sensor_type;location;lat;lon;timestamp;P1;durP1;ratioP1;P2;durP2;ratioP2
56041;SDS011;48756;41.374;2.066;2022-08-14T00:00:40;7.88;;;4.30;;
56041;SDS011;48756;41.374;2.066;2022-08-14T00:03:06;8.60;;;4.50;;
56041;SDS011;48756;41.374;2.066;2022-08-14T00:05:32;9.77;;;5.07;;
56041;SDS011;48756;41.374;2.066;2022-08-14T00:08:00;5.60;;;4.35;;
56041;SDS011;48756;41.374;2.066;2022-08-14T00:10:26;5.57;;;4.30;;
56041;SDS011;48756;41.374;2.066;2022-08-14T00:12:53;5.93;;;4.20;;
56041;SDS011;48756;41.374;2.066;2022-08-14T00:17:50;6.10;;;4.35;;
56041;SDS011;48756;41.374;2.066;2022-08-14T00:20:17;6.88;;;4.00;;
56041;SDS011;48756;41.374;2.066;2022-08-14T00:22:45;7.05;;;5.20;;
56041;SDS011;48756;41.374;2.066;2022-08-14T00:25:11;7.00;;;4.28;;
56041;SDS011;48756;41.374;2.066;2022-08-14T00:27:37;5.13;;;4.13;;
56041;SDS011;48756;41.374;2.066;2022-08-14T00:30:07;4.80;;;4.30;;
56041;SDS011;48756;41.374;2.066;2022-08-14T00:32:35;5.78;;;4.65;;
56041;SDS011;48756;41.374;2.066;2022-08-14T00:35:01;7.78;;;4.95;;
56041;SDS011;48756;41.374;2.066;2022-08-14T00:37:31;6.55;;;2.90;;
56041;SDS011;48756;41.374;2.066;2022-08-14T00:40:02;8.50;;;4.70;;
56041;SDS011;48756;41.374;2.066;2022-08-14T00:42:29;6.43;;;4.20;;
56041;SDS011;48756;41.374;2.066;2022-08-14T00:44:55;5.28;;;3.78;;
56041;SDS011;48756;41.374;2.066;2022-08-14T00:47:20;8.70;;;3.45;;
56041;SDS011;48756;41.374;2.066;2022-08-14T00:49:49;7.20;;;3.42;;
56041;SDS011;48756;41.374;2.066;2022-08-14T00:52:22;4.13;;;3.30;;
56041;SDS011;48756;41.374;2.066;2022-08-14T00:54:50;5.68;;;4.00;;
56041;SDS011;48756;41.374;2.066;2022-08-14T00:57:21;7.50;;;3.97;;
56041;SDS011;48756;41.374;2.066;2022-08-14T00:59:51;21.15;;;4.22;;
56041;SDS011;48756;41.374;2.066;2022-08-14T01:02:18;4.65;;;3.60;;
56041;SDS011;48756;41.374;2.066;2022-08-14T01:04:48;6.82;;;3.63;;
56041;SDS011;48756;41.374;2.066;2022-08-14T01:07:16;5.13;;;3.15;;
56041;SDS011;48756;41.374;2.066;2022-08-14T01:09:49;4.80;;;4.00;;
56041;SDS011;48756;41.374;2.066;2022-08-14T01:12:18;8.88;;;4.25;;
56041;SDS011;48756;41.374;2.066;2022-08-14T01:14:44;7.95;;;3.80;;
56041;SDS011;48756;41.374;2.066;2022-08-14T01:17:10;7.03;;;5.30;;
56041;SDS011;48756;41.374;2.066;2022-08-14T01:19:36;6.65;;;4.35;;
56041;SDS011;48756;41.374;2.066;2022-08-14T01:22:21;4.30;;;3.80;;
56041;SDS011;48756;41.374;2.066;2022-08-14T01:24:46;7.38;;;5.35;;
56041;SDS011;48756;41.374;2.066;2022-08-14T01:27:19;8.88;;;5.10;;
56041;SDS011;48756;41.374;2.066;2022-08-14T01:29:49;4.93;;;3.40;;
56041;SDS011;48756;41.374;2.066;2022-08-14T01:32:17;6.55;;;4.30;;
56041;SDS011;48756;41.374;2.066;2022-08-14T01:34:48;3.95;;;3.08;;
56041;SDS011;48756;41.374;2.066;2022-08-14T01:37:18;5.55;;;4.25;;
56041;SDS011;48756;41.374;2.066;2022-08-14T01:39:47;5.32;;;4.53;;
56041;SDS011;48756;41.374;2.066;2022-08-14T01:42:13;6.68;;;4.05;;
56041;SDS011;48756;41.374;2.066;2022-08-14T01:44:39;8.30;;;5.03;;
56041;SDS011;48756;41.374;2.066;2022-08-14T01:47:06;7.10;;;3.35;;
56041;SDS011;48756;41.374;2.066;2022-08-14T01:49:38;8.25;;;5.40;;
56041;SDS011;48756;41.374;2.066;2022-08-14T01:52:05;5.90;;;4.00;;
56041;SDS011;48756;41.374;2.066;2022-08-14T01:54:31;7.20;;;3.55;;
56041;SDS011;48756;41.374;2.066;2022-08-14T01:56:56;6.47;;;4.57;;
56041;SDS011;48756;41.374;2.066;2022-08-14T01:59:26;6.32;;;3.97;;
56041;SDS011;48756;41.374;2.066;2022-08-14T02:01:57;5.32;;;4.05;;
56041;SDS011;48756;41.374;2.066;2022-08-14T02:04:27;7.50;;;4.00;;
56041;SDS011;48756;41.374;2.066;2022-08-14T02:06:55;7.07;;;3.45;;
56041;SDS011;48756;41.374;2.066;2022-08-14T02:09:21;13.18;;;4.90;;
56041;SDS011;48756;41.374;2.066;2022-08-14T02:11:50;5.57;;;4.40;;
56041;SDS011;48756;41.374;2.066;2022-08-14T02:14:17;4.30;;;3.80;;
56041;SDS011;48756;41.374;2.066;2022-08-14T02:16:45;4.45;;;3.63;;
56041;SDS011;48756;41.374;2.066;2022-08-14T02:19:15;7.65;;;4.78;;
56041;SDS011;48756;41.374;2.066;2022-08-14T02:21:43;10.98;;;5.35;;
56041;SDS011;48756;41.374;2.066;2022-08-14T02:24:10;7.97;;;4.60;;
56041;SDS011;48756;41.374;2.066;2022-08-14T02:26:38;8.80;;;6.43;;
56041;SDS011;48756;41.374;2.066;2022-08-14T02:29:10;9.82;;;6.00;;
56041;SDS011;48756;41.374;2.066;2022-08-14T02:31:38;8.00;;;4.45;;
56041;SDS011;48756;41.374;2.066;2022-08-14T02:34:09;5.45;;;4.80;;
56041;SDS011;48756;41.374;2.066;2022-08-14T02:36:38;5.32;;;4.75;;
56041;SDS011;48756;41.374;2.066;2022-08-14T02:39:05;7.40;;;4.57;;
56041;SDS011;48756;41.374;2.066;2022-08-14T02:41:32;9.48;;;5.40;;
56041;SDS011;48756;41.374;2.066;2022-08-14T02:43:59;8.10;;;5.28;;
56041;SDS011;48756;41.374;2.066;2022-08-14T02:46:24;10.27;;;6.30;;
56041;SDS011;48756;41.374;2.066;2022-08-14T02:48:50;6.55;;;5.05;;
56041;SDS011;48756;41.374;2.066;2022-08-14T02:51:16;9.00;;;5.63;;
56041;SDS011;48756;41.374;2.066;2022-08-14T02:53:43;8.45;;;5.57;;
56041;SDS011;48756;41.374;2.066;2022-08-14T02:56:10;7.13;;;5.72;;
56041;SDS011;48756;41.374;2.066;2022-08-14T02:58:41;9.60;;;7.72;;
56041;SDS011;48756;41.374;2.066;2022-08-14T03:01:09;8.25;;;5.25;;
56041;SDS011;48756;41.374;2.066;2022-08-14T03:03:36;9.52;;;5.45;;
56041;SDS011;48756;41.374;2.066;2022-08-14T03:06:05;9.23;;;5.85;;
56041;SDS011;48756;41.374;2.066;2022-08-14T03:08:35;13.88;;;7.68;;
56041;SDS011;48756;41.374;2.066;2022-08-14T03:11:03;9.70;;;6.68;;
56041;SDS011;48756;41.374;2.066;2022-08-14T03:13:34;12.52;;;5.95;;
56041;SDS011;48756;41.374;2.066;2022-08-14T03:16:04;10.27;;;5.25;;
56041;SDS011;48756;41.374;2.066;2022-08-14T03:18:31;8.82;;;6.45;;
56041;SDS011;48756;41.374;2.066;2022-08-14T03:20:58;10.65;;;5.20;;
56041;SDS011;48756;41.374;2.066;2022-08-14T03:23:31;10.63;;;4.70;;
56041;SDS011;48756;41.374;2.066;2022-08-14T03:25:59;8.07;;;5.50;;
56041;SDS011;48756;41.374;2.066;2022-08-14T03:28:25;6.47;;;5.25;;
56041;SDS011;48756;41.374;2.066;2022-08-14T03:30:53;10.00;;;4.47;;
56041;SDS011;48756;41.374;2.066;2022-08-14T03:33:22;10.15;;;4.60;;
56041;SDS011;48756;41.374;2.066;2022-08-14T03:35:49;4.53;;;3.55;;
56041;SDS011;48756;41.374;2.066;2022-08-14T03:38:15;5.85;;;4.05;;
56041;SDS011;48756;41.374;2.066;2022-08-14T03:40:43;6.35;;;3.58;;
56041;SDS011;48756;41.374;2.066;2022-08-14T03:43:11;7.75;;;4.30;;
56041;SDS011;48756;41.374;2.066;2022-08-14T03:45:38;7.53;;;4.40;;
56041;SDS011;48756;41.374;2.066;2022-08-14T03:48:13;9.55;;;4.97;;
56041;SDS011;48756;41.374;2.066;2022-08-14T03:50:44;9.27;;;4.75;;
56041;SDS011;48756;41.374;2.066;2022-08-14T03:53:11;11.00;;;4.57;;
56041;SDS011;48756;41.374;2.066;2022-08-14T03:55:38;12.50;;;5.35;;
56041;SDS011;48756;41.374;2.066;2022-08-14T03:58:05;9.13;;;4.38;;
56041;SDS011;48756;41.374;2.066;2022-08-14T04:00:31;6.55;;;4.38;;
56041;SDS011;48756;41.374;2.066;2022-08-14T04:02:57;7.35;;;4.70;;
56041;SDS011;48756;41.374;2.066;2022-08-14T04:05:22;8.77;;;4.20;;
56041;SDS011;48756;41.374;2.066;2022-08-14T04:07:49;9.43;;;5.00;;
56041;SDS011;48756;41.374;2.066;2022-08-14T04:10:14;7.03;;;4.93;;
56041;SDS011;48756;41.374;2.066;2022-08-14T04:12:44;10.77;;;3.83;;
56041;SDS011;48756;41.374;2.066;2022-08-14T04:15:10;8.40;;;4.57;;
56041;SDS011;48756;41.374;2.066;2022-08-14T04:17:36;10.00;;;4.82;;
56041;SDS011;48756;41.374;2.066;2022-08-14T04:20:02;6.20;;;4.88;;
56041;SDS011;48756;41.374;2.066;2022-08-14T04:22:30;7.65;;;4.57;;
56041;SDS011;48756;41.374;2.066;2022-08-14T04:24:59;9.10;;;4.60;;
56041;SDS011;48756;41.374;2.066;2022-08-14T04:27:25;9.05;;;4.68;;
56041;SDS011;48756;41.374;2.066;2022-08-14T04:29:51;9.43;;;6.57;;
56041;SDS011;48756;41.374;2.066;2022-08-14T04:32:18;9.13;;;4.25;;
56041;SDS011;48756;41.374;2.066;2022-08-14T04:34:46;9.18;;;6.80;;
56041;SDS011;48756;41.374;2.066;2022-08-14T04:37:12;7.95;;;4.18;;
56041;SDS011;48756;41.374;2.066;2022-08-14T04:39:56;7.30;;;3.85;;
56041;SDS011;48756;41.374;2.066;2022-08-14T04:42:40;5.80;;;3.22;;
56041;SDS011;48756;41.374;2.066;2022-08-14T04:45:25;5.57;;;3.53;;
56041;SDS011;48756;41.374;2.066;2022-08-14T04:48:00;6.90;;;3.30;;
56041;SDS011;48756;41.374;2.066;2022-08-14T04:50:42;15.68;;;2.42;;
56041;SDS011;48756;41.374;2.066;2022-08-14T04:53:10;6.43;;;2.83;;
56041;SDS011;48756;41.374;2.066;2022-08-14T04:55:38;4.18;;;2.03;;
56041;SDS011;48756;41.374;2.066;2022-08-14T04:58:06;5.65;;;3.38;;
56041;SDS011;48756;41.374;2.066;2022-08-14T05:00:32;9.68;;;2.60;;
56041;SDS011;48756;41.374;2.066;2022-08-14T05:03:04;5.82;;;3.28;;
56041;SDS011;48756;41.374;2.066;2022-08-14T05:05:30;6.05;;;3.30;;
56041;SDS011;48756;41.374;2.066;2022-08-14T05:08:02;12.13;;;2.90;;
56041;SDS011;48756;41.374;2.066;2022-08-14T05:10:34;7.28;;;3.58;;
56041;SDS011;48756;41.374;2.066;2022-08-14T05:13:00;10.35;;;4.78;;
56041;SDS011;48756;41.374;2.066;2022-08-14T05:15:29;14.27;;;3.47;;
56041;SDS011;48756;41.374;2.066;2022-08-14T05:17:55;4.43;;;3.67;;
56041;SDS011;48756;41.374;2.066;2022-08-14T05:20:20;6.53;;;4.38;;
56041;SDS011;48756;41.374;2.066;2022-08-14T05:22:46;4.20;;;2.40;;
56041;SDS011;48756;41.374;2.066;2022-08-14T05:25:13;7.75;;;2.22;;
56041;SDS011;48756;41.374;2.066;2022-08-14T05:27:38;4.70;;;2.30;;
56041;SDS011;48756;41.374;2.066;2022-08-14T05:30:04;3.00;;;2.25;;
56041;SDS011;48756;41.374;2.066;2022-08-14T05:32:31;5.25;;;2.70;;
56041;SDS011;48756;41.374;2.066;2022-08-14T05:34:57;6.20;;;2.95;;
56041;SDS011;48756;41.374;2.066;2022-08-14T05:37:23;4.00;;;2.55;;
56041;SDS011;48756;41.374;2.066;2022-08-14T05:39:50;5.93;;;2.20;;
56041;SDS011;48756;41.374;2.066;2022-08-14T05:42:16;2.80;;;1.77;;
56041;SDS011;48756;41.374;2.066;2022-08-14T05:44:41;11.50;;;2.67;;
56041;SDS011;48756;41.374;2.066;2022-08-14T05:47:07;4.05;;;1.77;;
56041;SDS011;48756;41.374;2.066;2022-08-14T05:49:32;4.80;;;1.88;;
56041;SDS011;48756;41.374;2.066;2022-08-14T05:52:04;3.97;;;2.58;;
56041;SDS011;48756;41.374;2.066;2022-08-14T05:54:30;3.35;;;2.13;;
56041;SDS011;48756;41.374;2.066;2022-08-14T05:56:55;11.65;;;2.05;;
56041;SDS011;48756;41.374;2.066;2022-08-14T05:59:21;6.75;;;2.17;;
56041;SDS011;48756;41.374;2.066;2022-08-14T06:01:47;3.60;;;1.40;;
56041;SDS011;48756;41.374;2.066;2022-08-14T06:04:13;7.88;;;2.05;;
56041;SDS011;48756;41.374;2.066;2022-08-14T06:06:38;7.78;;;1.60;;
56041;SDS011;48756;41.374;2.066;2022-08-14T06:09:04;3.75;;;1.58;;
56041;SDS011;48756;41.374;2.066;2022-08-14T06:11:32;9.75;;;2.92;;
56041;SDS011;48756;41.374;2.066;2022-08-14T06:13:59;3.75;;;1.08;;
56041;SDS011;48756;41.374;2.066;2022-08-14T06:16:24;6.32;;;2.40;;
56041;SDS011;48756;41.374;2.066;2022-08-14T06:18:50;6.75;;;1.27;;
56041;SDS011;48756;41.374;2.066;2022-08-14T06:21:16;2.60;;;1.20;;
56041;SDS011;48756;41.374;2.066;2022-08-14T06:23:41;9.52;;;2.15;;
56041;SDS011;48756;41.374;2.066;2022-08-14T06:26:07;4.78;;;1.55;;
56041;SDS011;48756;41.374;2.066;2022-08-14T06:28:34;2.08;;;1.42;;
56041;SDS011;48756;41.374;2.066;2022-08-14T06:31:01;2.63;;;1.65;;
56041;SDS011;48756;41.374;2.066;2022-08-14T06:33:26;9.85;;;3.20;;
56041;SDS011;48756;41.374;2.066;2022-08-14T06:35:52;3.85;;;1.27;;
56041;SDS011;48756;41.374;2.066;2022-08-14T06:38:19;4.70;;;1.27;;
56041;SDS011;48756;41.374;2.066;2022-08-14T06:40:46;4.05;;;1.27;;
56041;SDS011;48756;41.374;2.066;2022-08-14T06:43:14;3.45;;;1.75;;
56041;SDS011;48756;41.374;2.066;2022-08-14T06:45:42;5.13;;;1.23;;
56041;SDS011;48756;41.374;2.066;2022-08-14T06:48:19;4.40;;;1.58;;
56041;SDS011;48756;41.374;2.066;2022-08-14T06:50:47;3.17;;;1.33;;
56041;SDS011;48756;41.374;2.066;2022-08-14T06:53:14;5.53;;;2.03;;
56041;SDS011;48756;41.374;2.066;2022-08-14T06:55:41;2.47;;;1.52;;
56041;SDS011;48756;41.374;2.066;2022-08-14T06:58:15;4.78;;;1.60;;
56041;SDS011;48756;41.374;2.066;2022-08-14T07:00:42;8.90;;;1.95;;
56041;SDS011;48756;41.374;2.066;2022-08-14T07:03:29;10.52;;;2.63;;
56041;SDS011;48756;41.374;2.066;2022-08-14T07:06:14;5.18;;;1.85;;
56041;SDS011;48756;41.374;2.066;2022-08-14T07:08:40;5.82;;;1.88;;
56041;SDS011;48756;41.374;2.066;2022-08-14T07:11:07;5.28;;;1.52;;
56041;SDS011;48756;41.374;2.066;2022-08-14T07:13:34;4.22;;;1.30;;
56041;SDS011;48756;41.374;2.066;2022-08-14T07:15:59;5.90;;;2.22;;
56041;SDS011;48756;41.374;2.066;2022-08-14T07:18:26;3.90;;;1.67;;
56041;SDS011;48756;41.374;2.066;2022-08-14T07:20:53;6.13;;;1.55;;
56041;SDS011;48756;41.374;2.066;2022-08-14T07:23:20;7.50;;;2.30;;
56041;SDS011;48756;41.374;2.066;2022-08-14T07:25:48;4.10;;;1.83;;
56041;SDS011;48756;41.374;2.066;2022-08-14T07:28:16;6.93;;;3.28;;
56041;SDS011;48756;41.374;2.066;2022-08-14T07:31:07;6.40;;;2.50;;
56041;SDS011;48756;41.374;2.066;2022-08-14T07:33:37;5.22;;;3.03;;
56041;SDS011;48756;41.374;2.066;2022-08-14T07:36:07;9.68;;;4.45;;
56041;SDS011;48756;41.374;2.066;2022-08-14T07:38:34;12.63;;;3.25;;
56041;SDS011;48756;41.374;2.066;2022-08-14T07:41:01;7.13;;;4.32;;
56041;SDS011;48756;41.374;2.066;2022-08-14T07:43:27;5.38;;;3.85;;
56041;SDS011;48756;41.374;2.066;2022-08-14T07:45:53;9.80;;;3.83;;
56041;SDS011;48756;41.374;2.066;2022-08-14T07:48:22;9.85;;;5.00;;
56041;SDS011;48756;41.374;2.066;2022-08-14T07:50:48;14.27;;;5.43;;
56041;SDS011;48756;41.374;2.066;2022-08-14T07:53:15;9.27;;;5.00;;
56041;SDS011;48756;41.374;2.066;2022-08-14T07:55:41;5.35;;;3.17;;
56041;SDS011;48756;41.374;2.066;2022-08-14T07:58:10;7.10;;;5.40;;
56041;SDS011;48756;41.374;2.066;2022-08-14T08:00:36;7.05;;;3.20;;
56041;SDS011;48756;41.374;2.066;2022-08-14T08:03:02;7.50;;;4.65;;
56041;SDS011;48756;41.374;2.066;2022-08-14T08:05:34;10.27;;;4.28;;
56041;SDS011;48756;41.374;2.066;2022-08-14T08:08:00;8.27;;;5.40;;
56041;SDS011;48756;41.374;2.066;2022-08-14T08:10:28;9.27;;;5.15;;
56041;SDS011;48756;41.374;2.066;2022-08-14T08:15:29;8.57;;;5.70;;
56041;SDS011;48756;41.374;2.066;2022-08-14T08:17:57;7.97;;;4.63;;
56041;SDS011;48756;41.374;2.066;2022-08-14T08:20:25;11.73;;;6.70;;
56041;SDS011;48756;41.374;2.066;2022-08-14T08:22:52;8.88;;;4.78;;
56041;SDS011;48756;41.374;2.066;2022-08-14T08:25:25;10.63;;;5.30;;
56041;SDS011;48756;41.374;2.066;2022-08-14T08:27:54;10.52;;;7.32;;
56041;SDS011;48756;41.374;2.066;2022-08-14T08:30:26;8.43;;;5.95;;
56041;SDS011;48756;41.374;2.066;2022-08-14T08:32:54;8.63;;;5.18;;
56041;SDS011;48756;41.374;2.066;2022-08-14T08:35:22;15.13;;;6.45;;
56041;SDS011;48756;41.374;2.066;2022-08-14T08:37:50;11.75;;;6.45;;
56041;SDS011;48756;41.374;2.066;2022-08-14T08:40:24;11.85;;;5.95;;
56041;SDS011;48756;41.374;2.066;2022-08-14T08:42:51;7.80;;;5.30;;
56041;SDS011;48756;41.374;2.066;2022-08-14T08:45:17;12.15;;;6.03;;
56041;SDS011;48756;41.374;2.066;2022-08-14T08:47:44;7.50;;;5.65;;
56041;SDS011;48756;41.374;2.066;2022-08-14T08:50:14;10.73;;;6.22;;
56041;SDS011;48756;41.374;2.066;2022-08-14T08:52:49;10.93;;;6.60;;
56041;SDS011;48756;41.374;2.066;2022-08-14T08:55:22;8.60;;;7.60;;
56041;SDS011;48756;41.374;2.066;2022-08-14T08:58:10;13.02;;;8.38;;
56041;SDS011;48756;41.374;2.066;2022-08-14T09:00:40;11.75;;;6.82;;
56041;SDS011;48756;41.374;2.066;2022-08-14T09:03:07;9.30;;;6.25;;
56041;SDS011;48756;41.374;2.066;2022-08-14T09:05:35;10.25;;;8.95;;
56041;SDS011;48756;41.374;2.066;2022-08-14T09:08:13;12.45;;;8.57;;
56041;SDS011;48756;41.374;2.066;2022-08-14T09:10:42;9.70;;;6.35;;
56041;SDS011;48756;41.374;2.066;2022-08-14T09:13:08;9.48;;;6.45;;
56041;SDS011;48756;41.374;2.066;2022-08-14T09:15:37;10.82;;;7.05;;
56041;SDS011;48756;41.374;2.066;2022-08-14T09:18:04;10.10;;;6.65;;
56041;SDS011;48756;41.374;2.066;2022-08-14T09:20:30;7.35;;;6.18;;
56041;SDS011;48756;41.374;2.066;2022-08-14T09:22:57;11.15;;;6.32;;
56041;SDS011;48756;41.374;2.066;2022-08-14T09:25:23;15.13;;;6.20;;
56041;SDS011;48756;41.374;2.066;2022-08-14T09:27:49;8.40;;;5.30;;
56041;SDS011;48756;41.374;2.066;2022-08-14T09:30:14;12.23;;;5.10;;
56041;SDS011;48756;41.374;2.066;2022-08-14T09:36:02;5.00;;;4.22;;
56041;SDS011;48756;41.374;2.066;2022-08-14T09:44:32;8.02;;;5.07;;
56041;SDS011;48756;41.374;2.066;2022-08-14T09:47:14;14.32;;;5.32;;
56041;SDS011;48756;41.374;2.066;2022-08-14T09:49:41;10.30;;;5.88;;
56041;SDS011;48756;41.374;2.066;2022-08-14T09:52:11;7.72;;;6.93;;
56041;SDS011;48756;41.374;2.066;2022-08-14T09:54:39;10.15;;;7.00;;
56041;SDS011;48756;41.374;2.066;2022-08-14T09:57:10;10.05;;;6.22;;
56041;SDS011;48756;41.374;2.066;2022-08-14T09:59:49;7.20;;;4.78;;
56041;SDS011;48756;41.374;2.066;2022-08-14T10:02:32;10.68;;;4.45;;
56041;SDS011;48756;41.374;2.066;2022-08-14T10:05:06;8.18;;;4.93;;
56041;SDS011;48756;41.374;2.066;2022-08-14T10:07:56;13.40;;;5.60;;
56041;SDS011;48756;41.374;2.066;2022-08-14T10:10:34;8.93;;;5.80;;
56041;SDS011;48756;41.374;2.066;2022-08-14T10:13:03;12.60;;;5.65;;
56041;SDS011;48756;41.374;2.066;2022-08-14T10:15:31;9.77;;;6.38;;
56041;SDS011;48756;41.374;2.066;2022-08-14T10:18:11;10.07;;;4.60;;
56041;SDS011;48756;41.374;2.066;2022-08-14T10:20:40;12.88;;;4.20;;
56041;SDS011;48756;41.374;2.066;2022-08-14T10:23:15;9.98;;;4.30;;
56041;SDS011;48756;41.374;2.066;2022-08-14T10:28:11;9.10;;;4.13;;
56041;SDS011;48756;41.374;2.066;2022-08-14T10:30:41;11.20;;;3.40;;
56041;SDS011;48756;41.374;2.066;2022-08-14T10:33:11;6.28;;;4.45;;
56041;SDS011;48756;41.374;2.066;2022-08-14T10:35:48;5.60;;;4.80;;
56041;SDS011;48756;41.374;2.066;2022-08-14T10:38:24;9.35;;;4.68;;
56041;SDS011;48756;41.374;2.066;2022-08-14T10:43:40;9.85;;;5.07;;
56041;SDS011;48756;41.374;2.066;2022-08-14T10:46:13;17.70;;;5.35;;
56041;SDS011;48756;41.374;2.066;2022-08-14T10:48:41;7.30;;;4.82;;
56041;SDS011;48756;41.374;2.066;2022-08-14T10:51:24;6.63;;;3.90;;
56041;SDS011;48756;41.374;2.066;2022-08-14T10:53:54;9.07;;;4.95;;
56041;SDS011;48756;41.374;2.066;2022-08-14T10:56:31;8.90;;;5.38;;
56041;SDS011;48756;41.374;2.066;2022-08-14T10:59:00;9.45;;;5.95;;
56041;SDS011;48756;41.374;2.066;2022-08-14T11:01:34;9.25;;;5.90;;
56041;SDS011;48756;41.374;2.066;2022-08-14T11:04:04;9.10;;;6.05;;
56041;SDS011;48756;41.374;2.066;2022-08-14T11:06:29;8.57;;;5.15;;
56041;SDS011;48756;41.374;2.066;2022-08-14T11:08:55;9.07;;;6.03;;
56041;SDS011;48756;41.374;2.066;2022-08-14T11:11:22;9.90;;;5.53;;
56041;SDS011;48756;41.374;2.066;2022-08-14T11:13:53;8.55;;;6.38;;
56041;SDS011;48756;41.374;2.066;2022-08-14T11:16:21;8.95;;;6.15;;
56041;SDS011;48756;41.374;2.066;2022-08-14T11:18:48;9.80;;;5.22;;
56041;SDS011;48756;41.374;2.066;2022-08-14T11:21:16;10.27;;;5.03;;
56041;SDS011;48756;41.374;2.066;2022-08-14T11:23:45;6.60;;;4.00;;
56041;SDS011;48756;41.374;2.066;2022-08-14T11:26:13;5.10;;;4.00;;
56041;SDS011;48756;41.374;2.066;2022-08-14T11:28:44;15.80;;;6.20;;
56041;SDS011;48756;41.374;2.066;2022-08-14T11:31:11;9.38;;;5.45;;
56041;SDS011;48756;41.374;2.066;2022-08-14T11:33:38;12.90;;;7.05;;
56041;SDS011;48756;41.374;2.066;2022-08-14T11:36:06;8.60;;;7.30;;
56041;SDS011;48756;41.374;2.066;2022-08-14T11:38:40;20.92;;;8.77;;
56041;SDS011;48756;41.374;2.066;2022-08-14T11:41:08;13.60;;;6.97;;
56041;SDS011;48756;41.374;2.066;2022-08-14T11:43:38;10.85;;;6.43;;
56041;SDS011;48756;41.374;2.066;2022-08-14T11:46:08;11.82;;;7.10;;
56041;SDS011;48756;41.374;2.066;2022-08-14T11:48:46;13.50;;;9.25;;
56041;SDS011;48756;41.374;2.066;2022-08-14T11:51:14;10.18;;;7.28;;
56041;SDS011;48756;41.374;2.066;2022-08-14T11:53:48;10.02;;;8.55;;
56041;SDS011;48756;41.374;2.066;2022-08-14T11:56:16;11.90;;;6.72;;
56041;SDS011;48756;41.374;2.066;2022-08-14T11:58:42;13.15;;;8.32;;
56041;SDS011;48756;41.374;2.066;2022-08-14T12:01:15;8.82;;;6.47;;
56041;SDS011;48756;41.374;2.066;2022-08-14T12:03:42;9.68;;;6.20;;
56041;SDS011;48756;41.374;2.066;2022-08-14T12:06:16;14.00;;;7.15;;
56041;SDS011;48756;41.374;2.066;2022-08-14T12:08:44;13.57;;;6.80;;
56041;SDS011;48756;41.374;2.066;2022-08-14T12:11:13;10.10;;;6.00;;
56041;SDS011;48756;41.374;2.066;2022-08-14T12:13:40;14.95;;;7.47;;
56041;SDS011;48756;41.374;2.066;2022-08-14T12:16:08;20.05;;;6.80;;
56041;SDS011;48756;41.374;2.066;2022-08-14T12:18:37;8.30;;;7.18;;
56041;SDS011;48756;41.374;2.066;2022-08-14T12:21:19;9.25;;;6.95;;
56041;SDS011;48756;41.374;2.066;2022-08-14T12:23:47;9.73;;;7.28;;
56041;SDS011;48756;41.374;2.066;2022-08-14T12:26:26;9.95;;;7.13;;
56041;SDS011;48756;41.374;2.066;2022-08-14T12:29:05;16.67;;;9.88;;
56041;SDS011;48756;41.374;2.066;2022-08-14T12:31:32;12.13;;;8.10;;
56041;SDS011;48756;41.374;2.066;2022-08-14T12:34:00;9.70;;;7.53;;
56041;SDS011;48756;41.374;2.066;2022-08-14T12:36:28;10.90;;;7.70;;
56041;SDS011;48756;41.374;2.066;2022-08-14T12:39:02;11.48;;;6.75;;
56041;SDS011;48756;41.374;2.066;2022-08-14T12:41:47;12.98;;;8.20;;
56041;SDS011;48756;41.374;2.066;2022-08-14T12:44:16;13.68;;;8.52;;
56041;SDS011;48756;41.374;2.066;2022-08-14T12:47:01;15.70;;;7.00;;
56041;SDS011;48756;41.374;2.066;2022-08-14T12:49:32;12.80;;;8.38;;
56041;SDS011;48756;41.374;2.066;2022-08-14T12:51:58;14.82;;;8.85;;
56041;SDS011;48756;41.374;2.066;2022-08-14T12:54:27;14.23;;;8.55;;
56041;SDS011;48756;41.374;2.066;2022-08-14T12:57:07;15.10;;;6.80;;
56041;SDS011;48756;41.374;2.066;2022-08-14T12:59:35;11.63;;;8.10;;
56041;SDS011;48756;41.374;2.066;2022-08-14T13:02:02;7.68;;;6.93;;
56041;SDS011;48756;41.374;2.066;2022-08-14T13:04:27;19.60;;;8.38;;
56041;SDS011;48756;41.374;2.066;2022-08-14T13:06:55;10.15;;;6.40;;
56041;SDS011;48756;41.374;2.066;2022-08-14T13:09:33;9.02;;;7.10;;
56041;SDS011;48756;41.374;2.066;2022-08-14T13:12:00;15.35;;;6.97;;
56041;SDS011;48756;41.374;2.066;2022-08-14T13:14:29;11.90;;;6.55;;
56041;SDS011;48756;41.374;2.066;2022-08-14T13:16:58;13.45;;;6.20;;
56041;SDS011;48756;41.374;2.066;2022-08-14T13:19:25;12.57;;;6.28;;
56041;SDS011;48756;41.374;2.066;2022-08-14T13:21:51;14.50;;;7.55;;
56041;SDS011;48756;41.374;2.066;2022-08-14T13:24:19;14.50;;;7.82;;
56041;SDS011;48756;41.374;2.066;2022-08-14T13:26:47;13.35;;;5.85;;
56041;SDS011;48756;41.374;2.066;2022-08-14T13:29:23;10.35;;;6.88;;
56041;SDS011;48756;41.374;2.066;2022-08-14T13:31:52;12.55;;;7.05;;
56041;SDS011;48756;41.374;2.066;2022-08-14T13:34:23;20.58;;;8.95;;
56041;SDS011;48756;41.374;2.066;2022-08-14T13:36:51;15.55;;;8.07;;
56041;SDS011;48756;41.374;2.066;2022-08-14T13:39:18;7.60;;;5.57;;
56041;SDS011;48756;41.374;2.066;2022-08-14T13:41:45;10.73;;;5.50;;
56041;SDS011;48756;41.374;2.066;2022-08-14T13:44:12;12.98;;;6.55;;
56041;SDS011;48756;41.374;2.066;2022-08-14T13:46:40;9.18;;;6.68;;
56041;SDS011;48756;41.374;2.066;2022-08-14T13:49:07;8.80;;;6.20;;
56041;SDS011;48756;41.374;2.066;2022-08-14T13:51:36;15.02;;;6.43;;
56041;SDS011;48756;41.374;2.066;2022-08-14T13:54:04;11.32;;;4.88;;
56041;SDS011;48756;41.374;2.066;2022-08-14T13:56:30;16.05;;;7.53;;
56041;SDS011;48756;41.374;2.066;2022-08-14T13:59:01;8.15;;;5.13;;
56041;SDS011;48756;41.374;2.066;2022-08-14T14:01:27;8.80;;;5.47;;
56041;SDS011;48756;41.374;2.066;2022-08-14T14:03:54;9.82;;;6.10;;
56041;SDS011;48756;41.374;2.066;2022-08-14T14:06:24;7.85;;;4.53;;
56041;SDS011;48756;41.374;2.066;2022-08-14T14:08:52;10.88;;;5.50;;
56041;SDS011;48756;41.374;2.066;2022-08-14T14:11:20;8.73;;;5.05;;
56041;SDS011;48756;41.374;2.066;2022-08-14T14:13:49;9.40;;;4.75;;
56041;SDS011;48756;41.374;2.066;2022-08-14T14:16:19;11.10;;;6.15;;
56041;SDS011;48756;41.374;2.066;2022-08-14T14:18:49;7.28;;;5.65;;
56041;SDS011;48756;41.374;2.066;2022-08-14T14:21:20;6.67;;;4.10;;
56041;SDS011;48756;41.374;2.066;2022-08-14T14:23:50;5.18;;;3.58;;
56041;SDS011;48756;41.374;2.066;2022-08-14T14:26:17;7.60;;;3.97;;
56041;SDS011;48756;41.374;2.066;2022-08-14T14:28:49;11.25;;;3.38;;
56041;SDS011;48756;41.374;2.066;2022-08-14T14:31:22;9.07;;;4.20;;
56041;SDS011;48756;41.374;2.066;2022-08-14T14:33:51;8.55;;;3.35;;
56041;SDS011;48756;41.374;2.066;2022-08-14T14:36:21;13.48;;;4.65;;
56041;SDS011;48756;41.374;2.066;2022-08-14T14:38:54;8.10;;;4.43;;
56041;SDS011;48756;41.374;2.066;2022-08-14T14:41:22;9.80;;;3.95;;
56041;SDS011;48756;41.374;2.066;2022-08-14T14:43:50;10.75;;;3.92;;
56041;SDS011;48756;41.374;2.066;2022-08-14T14:46:18;8.35;;;4.10;;
56041;SDS011;48756;41.374;2.066;2022-08-14T14:48:45;11.95;;;6.00;;
56041;SDS011;48756;41.374;2.066;2022-08-14T14:51:12;6.82;;;3.15;;
56041;SDS011;48756;41.374;2.066;2022-08-14T14:53:40;4.20;;;3.65;;
56041;SDS011;48756;41.374;2.066;2022-08-14T14:56:07;9.13;;;4.18;;
56041;SDS011;48756;41.374;2.066;2022-08-14T14:58:34;11.43;;;2.88;;
56041;SDS011;48756;41.374;2.066;2022-08-14T15:01:02;7.97;;;2.78;;
56041;SDS011;48756;41.374;2.066;2022-08-14T15:03:29;7.30;;;3.13;;
56041;SDS011;48756;41.374;2.066;2022-08-14T15:05:57;5.78;;;2.70;;
56041;SDS011;48756;41.374;2.066;2022-08-14T15:08:22;8.43;;;3.28;;
56041;SDS011;48756;41.374;2.066;2022-08-14T15:10:49;8.98;;;3.00;;
56041;SDS011;48756;41.374;2.066;2022-08-14T15:13:17;9.07;;;2.15;;